Absecon, New Jersey
Current Conditions -  °F | °C
As of 4:54 AM on Friday 24 Oct 2014 (Local Time) from KACY Reporting Station
Clear Clear  
Wind Chill: 43°   Ceiling: Unl
Heat Index: 46°   Visibility: 10mi
Dew Point: 43°   Wind: 6mph
Humidity: 89%   Direction: 300°WNW
Pressure: 29.82"   Gusts: NA
Location:  39.43°N, 74.51°W
Report Text: KACY 240854Z 30005KT 10SM CLR 08/06 A2982 RMK AO2 SLP099 T00780061 51010
Loading
Personal Weather Stations






























Interactive Weather Map New forecast layout! Learn more

10-Day Weather Forecast

Advertisements
Track Severe Weather on mobile